createdAt,value
2022-11-25T00:00:25.050Z,7.93
2022-11-25T00:01:24.987Z,7.92
2022-11-25T00:02:25.167Z,7.99
2022-11-25T00:03:25.070Z,7.96
2022-11-25T00:04:24.977Z,7.85
2022-11-25T00:05:24.945Z,7.85
2022-11-25T00:06:24.975Z,7.84
2022-11-25T00:07:24.998Z,7.81
2022-11-25T00:08:24.908Z,7.75
2022-11-25T00:09:24.913Z,7.82
2022-11-25T00:10:24.884Z,7.74
2022-11-25T00:11:24.892Z,7.71
2022-11-25T00:12:24.876Z,7.77
2022-11-25T00:13:24.864Z,7.63
2022-11-25T00:14:24.852Z,7.74
2022-11-25T00:15:24.848Z,7.63
2022-11-25T00:16:24.884Z,7.69
2022-11-25T00:17:24.806Z,7.79
2022-11-25T00:18:24.791Z,7.63
2022-11-25T00:19:24.802Z,7.67
2022-11-25T00:20:24.781Z,7.71
2022-11-25T00:21:24.762Z,7.60
2022-11-25T00:22:24.769Z,7.62
2022-11-25T00:23:29.092Z,7.63
2022-11-25T00:24:25.735Z,7.66
2022-11-25T00:25:24.718Z,7.71
2022-11-25T00:26:24.715Z,7.72
2022-11-25T00:27:24.710Z,7.66
2022-11-25T00:28:24.677Z,7.60
2022-11-25T00:29:24.692Z,7.53
2022-11-25T00:30:24.687Z,7.53
2022-11-25T00:31:24.679Z,7.49
2022-11-25T00:32:24.645Z,7.58
2022-11-25T00:33:24.643Z,7.56
2022-11-25T00:34:24.609Z,7.58
2022-11-25T00:35:24.618Z,7.55
2022-11-25T00:36:24.601Z,7.56
2022-11-25T00:37:24.584Z,7.52
2022-11-25T00:38:24.602Z,7.58
2022-11-25T00:39:24.566Z,7.60
2022-11-25T00:40:24.544Z,7.42
2022-11-25T00:41:24.549Z,7.59
2022-11-25T00:42:24.532Z,7.50
2022-11-25T00:43:24.511Z,7.62
2022-11-25T00:44:24.499Z,7.60
2022-11-25T00:45:24.519Z,7.59
2022-11-25T00:46:24.491Z,7.60
2022-11-25T00:47:24.478Z,7.55
2022-11-25T00:48:24.452Z,7.69
2022-11-25T00:49:24.444Z,7.62
2022-11-25T00:50:24.429Z,7.58
2022-11-25T00:51:24.420Z,7.60
2022-11-25T00:52:24.450Z,7.66
2022-11-25T00:53:24.412Z,7.58
2022-11-25T00:54:24.404Z,7.66
2022-11-25T00:55:24.375Z,7.66
2022-11-25T00:56:24.368Z,7.67
2022-11-25T00:57:24.381Z,7.74
2022-11-25T00:58:24.338Z,7.77
2022-11-25T00:59:24.332Z,7.69
2022-11-25T01:00:24.328Z,7.79
2022-11-25T01:01:24.364Z,7.87
2022-11-25T01:02:24.414Z,7.96
2022-11-25T01:03:24.295Z,7.94
2022-11-25T01:04:24.270Z,8.02
2022-11-25T01:05:24.277Z,7.97
2022-11-25T01:06:24.258Z,7.99
2022-11-25T01:07:24.301Z,8.02
2022-11-25T01:08:24.237Z,7.92
2022-11-25T01:09:24.230Z,7.96
2022-11-25T01:10:24.243Z,8.00
2022-11-25T01:11:24.207Z,7.97
2022-11-25T01:12:24.193Z,8.07
2022-11-25T01:13:24.192Z,8.17
2022-11-25T01:14:24.169Z,8.11
2022-11-25T01:15:24.146Z,8.17
2022-11-25T01:16:24.243Z,8.17
2022-11-25T01:17:24.144Z,8.11
2022-11-25T01:18:24.110Z,8.17
2022-11-25T01:19:24.127Z,8.17
2022-11-25T01:20:24.102Z,8.18
2022-11-25T01:21:24.094Z,8.21
2022-11-25T01:22:24.064Z,8.21
2022-11-25T01:23:24.059Z,8.12
2022-11-25T01:24:24.347Z,8.18
2022-11-25T01:25:24.048Z,8.20
2022-11-25T01:26:24.040Z,8.12
2022-11-25T01:27:24.017Z,8.25
2022-11-25T01:28:23.994Z,8.20
2022-11-25T01:29:24.004Z,8.26
2022-11-25T01:30:23.995Z,8.18
2022-11-25T01:31:24.011Z,8.26
2022-11-25T01:32:23.964Z,8.21
2022-11-25T01:33:23.962Z,8.30
2022-11-25T01:34:23.960Z,8.28
2022-11-25T01:35:23.939Z,8.21
2022-11-25T01:36:23.920Z,8.17
2022-11-25T01:37:23.915Z,8.29
2022-11-25T01:38:23.898Z,8.14
2022-11-25T01:39:30.159Z,8.28
2022-11-25T01:40:24.860Z,8.22
2022-11-25T01:41:23.896Z,8.22
2022-11-25T01:42:23.882Z,8.17
2022-11-25T01:43:23.842Z,8.25
2022-11-25T01:44:23.831Z,8.21
2022-11-25T01:45:28.347Z,8.25
2022-11-25T01:46:23.879Z,8.20
2022-11-25T01:47:23.821Z,8.29
2022-11-25T01:48:23.770Z,8.22
2022-11-25T01:49:23.777Z,8.20
2022-11-25T01:50:23.747Z,8.25
2022-11-25T01:51:23.742Z,8.29
2022-11-25T07:44:25.406Z,8.15
2022-11-25T07:45:25.364Z,8.11
2022-11-25T07:46:27.404Z,8.17
2022-11-25T07:47:25.357Z,8.18
2022-11-25T07:48:25.336Z,8.21
2022-11-25T07:49:25.406Z,8.11
2022-11-25T07:50:25.304Z,8.15
2022-11-25T07:51:25.303Z,8.17
2022-11-25T07:52:25.297Z,8.20
2022-11-25T07:53:25.289Z,8.40
2022-11-25T07:54:25.260Z,8.30
2022-11-25T07:55:25.255Z,8.42
2022-11-25T07:56:25.244Z,8.53
2022-11-25T07:57:25.248Z,8.45
2022-11-25T07:58:25.246Z,8.40
2022-11-25T07:59:25.206Z,8.62
2022-11-25T08:00:25.224Z,8.65
2022-11-25T08:01:25.312Z,8.68
2022-11-25T08:02:25.207Z,8.68
2022-11-25T08:03:25.161Z,8.76
2022-11-25T08:04:25.160Z,8.71
2022-11-25T08:05:25.180Z,8.78
2022-11-25T08:06:25.135Z,8.72
2022-11-25T08:07:25.191Z,8.68
2022-11-25T08:08:25.106Z,8.66
2022-11-25T08:09:25.108Z,8.58
2022-11-25T08:10:25.091Z,8.69
2022-11-25T08:11:25.075Z,8.71
2022-11-25T08:12:25.063Z,8.62
2022-11-25T08:13:25.065Z,8.55
2022-11-25T08:14:25.050Z,8.62
2022-11-25T08:15:25.027Z,8.58
2022-11-25T08:16:25.153Z,8.54
2022-11-25T08:17:25.018Z,8.47
2022-11-25T08:18:24.987Z,8.48
2022-11-25T08:19:31.179Z,8.51
2022-11-25T08:20:26.032Z,8.57
2022-11-25T08:21:24.953Z,8.51
2022-11-25T08:22:24.945Z,8.58
2022-11-25T08:23:24.945Z,8.60
2022-11-25T08:24:24.943Z,8.55
2022-11-25T08:25:24.940Z,8.68
2022-11-25T08:26:24.899Z,8.58
2022-11-25T08:27:24.897Z,8.69
2022-11-25T08:28:24.890Z,8.65
2022-11-25T08:29:24.880Z,8.71
2022-11-25T08:30:24.946Z,8.69
2022-11-25T08:31:24.941Z,8.78
2022-11-25T08:32:24.851Z,8.79
2022-11-25T08:33:24.832Z,8.79
2022-11-25T08:34:24.821Z,8.88
2022-11-25T08:35:24.813Z,8.88
2022-11-25T08:36:24.811Z,8.94
2022-11-25T08:37:24.785Z,8.88
2022-11-25T08:38:24.763Z,8.86
2022-11-25T08:39:54.944Z,8.83
2022-11-25T08:40:25.754Z,8.96
2022-11-25T08:41:24.756Z,9.01
2022-11-25T08:42:24.735Z,8.99
2022-11-25T08:43:29.229Z,8.97
2022-11-25T08:44:24.709Z,9.04
2022-11-25T08:45:24.702Z,9.02
2022-11-25T08:46:24.822Z,8.99
2022-11-25T08:47:24.687Z,9.06
2022-11-25T08:48:24.684Z,9.09
2022-11-25T08:49:24.633Z,9.21
2022-11-25T08:50:24.646Z,9.13
2022-11-25T08:51:24.627Z,9.20
2022-11-25T08:52:24.619Z,9.24
2022-11-25T08:53:24.588Z,9.27
2022-11-25T08:54:24.618Z,9.20
2022-11-25T08:55:24.567Z,9.32
2022-11-25T08:56:26.458Z,9.31
2022-11-25T08:57:24.564Z,9.40
2022-11-25T08:58:24.537Z,9.42
2022-11-25T08:59:24.535Z,9.48
2022-11-25T09:00:24.527Z,9.48
2022-11-25T09:01:24.514Z,9.48
2022-11-25T09:02:24.532Z,9.48
2022-11-25T09:03:24.595Z,9.46
2022-11-25T09:04:24.491Z,9.56
2022-11-25T09:05:24.459Z,9.64
2022-11-25T09:06:24.446Z,9.66
2022-11-25T09:07:29.253Z,9.57
2022-11-25T09:08:25.447Z,9.66
2022-11-25T09:09:24.436Z,9.68
2022-11-25T09:10:24.399Z,9.75
2022-11-25T09:11:24.512Z,9.75
2022-11-25T09:12:24.378Z,9.71
2022-11-25T09:13:24.378Z,9.76
2022-11-25T09:14:24.475Z,9.83
2022-11-25T09:15:24.355Z,9.75
2022-11-25T09:16:25.809Z,9.86
2022-11-25T09:17:24.334Z,9.79
2022-11-25T09:18:24.310Z,9.91
2022-11-25T09:19:24.324Z,9.81
2022-11-25T09:20:24.312Z,9.81
2022-11-25T09:21:24.287Z,9.85
2022-11-25T09:22:24.277Z,9.86
2022-11-25T09:23:24.262Z,9.96
2022-11-25T09:24:24.273Z,9.94
2022-11-25T09:25:24.238Z,9.96
2022-11-25T09:26:24.222Z,9.94
2022-11-25T09:27:24.204Z,10.10
2022-11-25T09:28:24.210Z,10.09
2022-11-25T09:29:24.215Z,10.06
2022-11-25T09:30:24.172Z,10.17
2022-11-25T09:31:24.211Z,10.04
2022-11-25T09:32:24.154Z,10.18
2022-11-25T09:33:24.154Z,10.17
2022-11-25T09:34:24.138Z,10.14
2022-11-25T09:35:24.161Z,10.25
2022-11-25T09:36:24.139Z,10.32
2022-11-25T09:37:24.097Z,10.26
2022-11-25T09:38:24.097Z,10.32
2022-11-25T09:39:24.067Z,10.30
2022-11-25T09:40:24.094Z,10.46
2022-11-25T09:41:24.048Z,10.39
2022-11-25T09:42:24.038Z,10.44
2022-11-25T09:43:24.040Z,10.56
2022-11-25T09:44:24.013Z,10.58
2022-11-25T09:45:24.001Z,10.68
2022-11-25T09:46:24.142Z,10.60
2022-11-25T09:47:23.975Z,10.70
2022-11-25T09:48:23.970Z,10.70
2022-11-25T09:49:23.955Z,10.80
2022-11-25T09:50:23.943Z,10.84
2022-11-25T09:51:23.943Z,10.94
2022-11-25T09:52:23.964Z,10.99
2022-11-25T09:53:23.920Z,11.10
2022-11-25T09:54:23.900Z,11.17
2022-11-25T09:55:23.899Z,11.32
2022-11-25T09:56:23.892Z,11.43
2022-11-25T09:57:23.879Z,11.54
2022-11-25T09:58:23.858Z,11.65
2022-11-25T09:59:23.858Z,11.77
2022-11-25T10:00:23.834Z,11.90
2022-11-25T10:01:23.845Z,12.19
2022-11-25T10:02:24.046Z,12.48
2022-11-25T10:03:23.842Z,12.57
2022-11-25T10:04:23.802Z,12.81
2022-11-25T10:05:23.771Z,12.88
2022-11-25T10:06:23.868Z,12.97
2022-11-25T10:07:23.759Z,13.07
2022-11-25T10:08:23.784Z,13.17
2022-11-25T10:09:23.737Z,13.25
2022-11-25T10:10:23.731Z,13.43
2022-11-25T10:11:23.718Z,13.62
2022-11-25T10:12:23.732Z,13.69
2022-11-25T10:13:23.681Z,13.84
2022-11-25T10:14:23.686Z,13.80
2022-11-25T10:15:23.665Z,13.87
2022-11-25T10:16:23.681Z,13.88
2022-11-25T10:17:23.678Z,13.84
2022-11-25T10:18:23.628Z,14.04
2022-11-25T10:19:23.626Z,14.09
2022-11-25T10:20:23.618Z,14.14
2022-11-25T10:21:23.605Z,14.37
2022-11-25T10:22:23.596Z,14.47
2022-11-25T10:23:27.777Z,14.62
2022-11-25T10:24:23.596Z,14.80
2022-11-25T10:25:23.544Z,14.95
2022-11-25T10:26:23.539Z,14.94
2022-11-25T10:27:23.551Z,15.08
2022-11-25T10:28:23.540Z,15.23
2022-11-25T10:29:23.496Z,15.28
2022-11-25T10:30:23.497Z,15.33
2022-11-25T10:31:23.568Z,15.21
2022-11-25T10:32:23.481Z,15.17
2022-11-25T10:33:23.469Z,15.13
2022-11-25T10:34:23.445Z,15.31
2022-11-25T10:35:23.429Z,15.39
2022-11-25T10:36:23.442Z,15.49
2022-11-25T10:37:23.406Z,15.67
2022-11-25T10:38:23.582Z,15.94
2022-11-25T10:39:23.398Z,16.04
2022-11-25T10:40:23.412Z,16.22
2022-11-25T10:41:23.364Z,16.34
2022-11-25T10:42:23.367Z,16.49
2022-11-25T10:43:27.279Z,16.67
2022-11-25T10:44:24.333Z,16.65
2022-11-25T10:45:23.318Z,16.67
2022-11-25T10:46:23.411Z,16.63
2022-11-25T10:47:23.420Z,16.65
2022-11-25T10:48:23.300Z,16.56
2022-11-25T10:49:23.305Z,16.65
2022-11-25T10:50:23.284Z,16.68
2022-11-25T10:51:23.262Z,16.78
2022-11-25T10:52:23.245Z,16.70
2022-11-25T10:53:23.230Z,16.62
2022-11-25T10:54:27.624Z,16.56
2022-11-25T10:55:23.229Z,16.60
2022-11-25T10:56:23.217Z,16.45
2022-11-25T10:57:23.179Z,16.25
2022-11-25T10:58:23.179Z,16.07
2022-11-25T10:59:23.157Z,15.94
2022-11-25T11:00:23.182Z,15.89
2022-11-25T11:01:23.248Z,15.74
2022-11-25T11:02:23.181Z,15.54
2022-11-25T11:03:23.308Z,15.43
2022-11-25T11:04:23.119Z,15.27
2022-11-25T11:05:23.105Z,15.13
2022-11-25T11:06:23.105Z,14.95
2022-11-25T11:07:23.150Z,14.74
2022-11-25T11:08:23.070Z,14.47
2022-11-25T11:09:23.057Z,14.39
2022-11-25T11:10:23.036Z,14.39
2022-11-25T11:11:23.047Z,14.35
2022-11-25T11:12:23.065Z,14.29
2022-11-25T11:13:23.012Z,14.19
2022-11-25T11:14:23.003Z,14.19
2022-11-25T11:15:22.990Z,14.24
2022-11-25T11:16:23.102Z,14.17
2022-11-25T11:17:22.955Z,14.25
2022-11-25T11:18:22.968Z,14.14
2022-11-25T11:19:22.941Z,14.09
2022-11-25T11:20:22.920Z,14.04
2022-11-25T11:21:22.908Z,14.01
2022-11-25T11:22:22.950Z,13.88
2022-11-25T11:23:22.885Z,13.91
2022-11-25T11:24:22.882Z,13.77
2022-11-25T11:25:22.860Z,13.63
2022-11-25T11:26:22.851Z,13.71
2022-11-25T11:27:22.853Z,13.73
2022-11-25T11:28:22.852Z,13.69
2022-11-25T11:29:22.818Z,13.79
2022-11-25T11:30:22.819Z,13.79
2022-11-25T11:31:22.877Z,13.67
2022-11-25T11:32:22.818Z,13.69
2022-11-25T11:33:22.781Z,13.69
2022-11-25T11:34:22.784Z,13.67
2022-11-25T11:35:22.763Z,13.65
2022-11-25T11:36:22.753Z,13.69
2022-11-25T11:37:22.758Z,13.70
2022-11-25T11:38:22.718Z,13.55
2022-11-25T11:39:22.724Z,13.69
2022-11-25T11:40:22.710Z,13.62
2022-11-25T11:41:22.691Z,13.63
2022-11-25T11:42:22.672Z,13.67
2022-11-25T11:43:22.682Z,13.63
2022-11-25T11:44:22.676Z,13.59
2022-11-25T11:45:22.652Z,13.47
2022-11-25T11:46:22.673Z,13.54
2022-11-25T11:47:22.609Z,13.52
2022-11-25T11:48:22.647Z,13.49
2022-11-25T11:49:27.626Z,13.46
2022-11-25T11:50:23.595Z,13.56
2022-11-25T11:51:22.584Z,13.69
2022-11-25T11:52:22.593Z,13.77
2022-11-25T11:53:22.556Z,13.87
2022-11-25T11:54:22.551Z,13.92
2022-11-25T11:55:22.532Z,13.88
2022-11-25T11:56:38.037Z,13.77
2022-11-25T11:57:23.510Z,13.83
2022-11-25T11:58:22.524Z,13.80
2022-11-25T11:59:22.497Z,13.77
2022-11-25T12:00:22.492Z,13.77
2022-11-25T12:01:22.483Z,13.77
2022-11-25T12:02:22.503Z,13.69
2022-11-25T12:03:22.484Z,13.62
2022-11-25T12:04:22.450Z,13.59
2022-11-25T12:05:22.417Z,13.61
2022-11-25T12:06:22.414Z,13.62
2022-11-25T12:07:22.468Z,13.61
2022-11-25T12:08:22.386Z,13.44
2022-11-25T12:09:22.380Z,13.40
2022-11-25T12:10:22.374Z,13.41
2022-11-25T12:11:22.350Z,13.41
2022-11-25T12:12:22.348Z,13.49
2022-11-25T12:13:22.337Z,13.58
2022-11-25T12:14:22.314Z,13.77
2022-11-25T12:15:22.306Z,13.80
2022-11-25T12:16:22.344Z,13.95
2022-11-25T12:17:22.281Z,14.17
2022-11-25T12:18:22.261Z,14.24
2022-11-25T12:19:22.246Z,14.19
2022-11-25T12:20:22.258Z,14.35
2022-11-25T12:21:22.234Z,14.39
2022-11-25T12:22:22.225Z,14.47
2022-11-25T12:23:22.210Z,14.56
2022-11-25T12:24:22.210Z,14.75
2022-11-25T12:25:22.184Z,14.84
2022-11-25T12:26:22.194Z,14.67
2022-11-25T12:27:22.158Z,14.67
2022-11-25T12:28:22.146Z,14.60
2022-11-25T12:29:22.138Z,14.54
2022-11-25T12:30:22.161Z,14.78
2022-11-25T12:31:22.180Z,15.02
2022-11-25T12:32:22.127Z,15.21
2022-11-25T12:33:22.085Z,15.42
2022-11-25T12:34:22.091Z,15.70
2022-11-25T12:35:22.078Z,15.94
2022-11-25T12:36:22.080Z,16.04
2022-11-25T12:37:22.052Z,16.11
2022-11-25T12:38:22.042Z,16.06
2022-11-25T12:39:22.030Z,16.06
2022-11-25T12:40:22.026Z,16.04
2022-11-25T12:41:21.999Z,16.06
2022-11-25T12:42:21.996Z,15.96
2022-11-25T12:43:22.000Z,16.04
2022-11-25T12:44:21.977Z,15.82
2022-11-25T12:45:21.951Z,15.57
2022-11-25T12:46:22.019Z,15.56
2022-11-25T12:47:21.941Z,15.48
2022-11-25T12:48:21.947Z,15.51
2022-11-25T12:49:21.905Z,15.51
2022-11-25T12:50:21.901Z,15.60
2022-11-25T12:51:21.892Z,15.57
2022-11-25T12:52:21.896Z,15.79
2022-11-25T12:53:21.875Z,15.86
2022-11-25T12:54:21.859Z,15.93
2022-11-25T12:55:21.849Z,15.92
2022-11-25T12:56:21.846Z,16.07
2022-11-25T12:57:21.839Z,16.23
2022-11-25T12:58:21.869Z,16.42
2022-11-25T12:59:21.808Z,16.65
2022-11-25T13:00:48.758Z,16.75
2022-11-25T13:01:22.838Z,16.70
2022-11-25T13:02:21.860Z,16.85
2022-11-25T13:03:21.760Z,16.90
2022-11-25T13:04:21.775Z,16.83
2022-11-25T13:05:41.455Z,16.93
2022-11-25T13:06:22.711Z,16.85
2022-11-25T13:07:21.775Z,16.59
2022-11-25T13:08:21.718Z,16.85
2022-11-25T13:09:21.682Z,16.89
2022-11-25T13:10:21.680Z,16.77
2022-11-25T13:11:21.978Z,16.67
2022-11-25T13:12:22.034Z,16.65
2022-11-25T13:13:22.137Z,16.62
2022-11-25T13:14:22.042Z,16.83
2022-11-25T13:15:22.127Z,16.93
2022-11-25T13:16:22.204Z,17.04
2022-11-25T13:17:21.982Z,16.88
2022-11-25T13:18:21.646Z,16.96
2022-11-25T13:19:21.597Z,16.99
2022-11-25T13:20:21.574Z,17.03
2022-11-25T13:21:21.547Z,17.00
2022-11-25T13:22:21.531Z,16.96
2022-11-25T13:23:21.524Z,16.77
2022-11-25T13:24:21.543Z,16.77
2022-11-25T13:25:21.516Z,16.77
2022-11-25T13:26:21.485Z,16.77
2022-11-25T13:27:21.481Z,16.49
2022-11-25T13:28:21.493Z,16.38
2022-11-25T13:29:21.490Z,16.38
2022-11-25T13:30:21.460Z,16.30
2022-11-25T13:31:21.536Z,16.03
2022-11-25T13:32:21.418Z,15.92
2022-11-25T13:33:21.413Z,15.94
2022-11-25T13:34:21.411Z,15.82
2022-11-25T13:35:21.411Z,15.84
2022-11-25T13:36:21.582Z,15.84
2022-11-25T13:37:21.376Z,16.06
2022-11-25T13:38:21.352Z,16.12
2022-11-25T13:39:21.346Z,16.06
2022-11-25T13:40:21.346Z,16.25
2022-11-25T13:41:21.341Z,16.48
2022-11-25T13:42:21.316Z,16.59
2022-11-25T13:43:21.323Z,16.80
2022-11-25T13:44:21.293Z,16.78
2022-11-25T13:45:21.392Z,16.86
2022-11-25T13:46:21.329Z,16.86
2022-11-25T13:47:21.284Z,17.00
2022-11-25T13:48:21.280Z,17.03
2022-11-25T13:49:21.233Z,17.18
2022-11-25T13:50:22.388Z,17.22
2022-11-25T13:51:21.210Z,17.30
2022-11-25T13:52:21.228Z,17.29
2022-11-25T13:53:21.199Z,17.28
2022-11-25T13:54:21.186Z,17.29
2022-11-25T13:55:21.179Z,17.23
2022-11-25T13:56:21.166Z,17.15
2022-11-25T13:57:21.147Z,17.13
2022-11-25T13:58:21.151Z,16.92
2022-11-25T13:59:21.120Z,16.83
2022-11-25T14:00:21.119Z,16.53
2022-11-25T14:01:24.862Z,16.35
2022-11-25T14:02:22.261Z,16.35
2022-11-25T14:03:21.268Z,16.12
2022-11-25T14:04:21.062Z,16.20
2022-11-25T14:05:21.068Z,16.18
2022-11-25T14:06:21.053Z,16.01
2022-11-25T14:07:21.094Z,15.96
2022-11-25T14:08:21.131Z,15.86
2022-11-25T14:09:21.088Z,15.64
2022-11-25T14:10:20.996Z,15.49
2022-11-25T14:11:20.988Z,15.49
2022-11-25T14:12:20.974Z,15.33
2022-11-25T14:13:20.979Z,15.30
2022-11-25T14:14:20.972Z,15.11
2022-11-25T14:15:20.956Z,15.01
2022-11-25T14:16:20.964Z,14.94
2022-11-25T14:17:20.942Z,14.90
2022-11-25T14:18:36.872Z,14.75
2022-11-25T14:19:49.996Z,14.72
2022-11-25T14:20:21.897Z,14.69
2022-11-25T14:21:20.889Z,14.56
2022-11-25T14:22:20.872Z,14.54
2022-11-25T14:23:22.577Z,14.54
2022-11-25T14:24:20.890Z,14.50
2022-11-25T14:25:20.856Z,14.39
2022-11-25T14:26:47.797Z,14.37
2022-11-25T14:27:21.827Z,14.39
2022-11-25T14:28:20.888Z,14.27
2022-11-25T14:29:20.796Z,14.31
2022-11-25T14:30:20.825Z,14.27
2022-11-25T14:31:20.859Z,14.32
2022-11-25T14:32:20.749Z,14.27
2022-11-25T14:33:20.740Z,14.29
2022-11-25T14:34:20.739Z,14.24
2022-11-25T14:35:20.772Z,14.17
2022-11-25T14:36:20.728Z,14.14
2022-11-25T14:37:20.692Z,14.09
2022-11-25T14:38:20.700Z,14.04
2022-11-25T14:39:20.686Z,13.95
2022-11-25T14:40:20.676Z,13.95
2022-11-25T14:41:20.665Z,13.96
2022-11-25T14:42:20.651Z,13.84
2022-11-25T14:43:20.625Z,13.83
2022-11-25T14:44:20.620Z,13.88
2022-11-25T14:45:20.624Z,13.77
2022-11-25T14:46:20.792Z,13.74
2022-11-25T14:47:20.613Z,13.71
2022-11-25T14:48:20.573Z,13.63
2022-11-25T14:49:44.834Z,13.55
2022-11-25T14:50:37.864Z,13.56
2022-11-25T14:51:21.533Z,13.44
2022-11-25T14:52:20.531Z,13.43
2022-11-25T14:53:20.536Z,13.44
2022-11-25T14:54:20.516Z,13.40
2022-11-25T14:55:20.486Z,13.41
2022-11-25T14:56:20.497Z,13.29
2022-11-25T14:57:20.533Z,13.21
2022-11-25T14:58:20.482Z,13.25
2022-11-25T14:59:20.455Z,13.18
2022-11-25T15:00:20.439Z,13.17
2022-11-25T15:01:20.428Z,13.21
2022-11-25T15:02:20.468Z,13.07
2022-11-25T15:03:20.563Z,13.06
2022-11-25T15:04:21.448Z,13.06
2022-11-25T15:05:20.464Z,13.04
2022-11-25T15:06:20.362Z,13.12
2022-11-25T15:07:20.458Z,13.00
2022-11-25T15:08:20.374Z,13.04
2022-11-25T15:09:20.334Z,13.12
2022-11-25T15:10:20.311Z,12.99
2022-11-25T15:11:20.304Z,12.88
2022-11-25T15:12:20.328Z,12.97
2022-11-25T15:13:20.307Z,13.03
2022-11-25T15:14:20.267Z,12.95
2022-11-25T15:15:20.260Z,12.88
2022-11-25T15:16:20.362Z,12.93
2022-11-25T15:17:20.238Z,13.00
2022-11-25T15:18:20.234Z,12.96
2022-11-25T15:19:20.213Z,12.84
2022-11-25T15:20:20.213Z,12.92
2022-11-25T15:21:20.210Z,12.93
2022-11-25T15:22:23.518Z,12.85
2022-11-25T15:23:20.167Z,12.85
2022-11-25T15:24:20.192Z,12.88
2022-11-25T15:25:20.159Z,12.95
2022-11-25T15:26:20.148Z,12.82
2022-11-25T15:27:20.134Z,12.82
2022-11-25T15:28:20.144Z,12.84
2022-11-25T15:29:20.132Z,12.81
2022-11-25T15:30:20.088Z,12.82
2022-11-25T15:31:20.115Z,12.81
2022-11-25T15:32:20.087Z,12.70
2022-11-25T15:33:20.066Z,12.77
2022-11-25T15:34:20.064Z,12.79
2022-11-25T15:35:20.038Z,12.71
2022-11-25T15:36:20.029Z,12.63
2022-11-25T15:37:20.020Z,12.63
2022-11-25T15:38:19.991Z,12.77
2022-11-25T15:39:20.000Z,12.64
2022-11-25T15:40:19.982Z,12.64
2022-11-25T15:41:19.983Z,12.60
2022-11-25T15:42:19.968Z,12.62
2022-11-25T15:43:19.943Z,12.49
2022-11-25T15:44:19.957Z,12.49
2022-11-25T15:45:19.931Z,12.48
2022-11-25T15:46:19.985Z,12.45
2022-11-25T15:47:19.902Z,12.46
2022-11-25T15:48:19.881Z,12.49
2022-11-25T15:49:19.886Z,12.41
2022-11-25T15:50:19.878Z,12.42
2022-11-25T15:51:19.866Z,12.42
2022-11-25T15:52:19.847Z,12.26
2022-11-25T15:53:24.170Z,12.37
2022-11-25T15:54:20.885Z,12.31
2022-11-25T15:55:19.808Z,12.24
2022-11-25T15:56:19.788Z,12.19
2022-11-25T15:57:19.782Z,12.11
2022-11-25T15:58:19.783Z,12.09
2022-11-25T15:59:19.778Z,12.04
2022-11-25T16:00:19.763Z,12.01
2022-11-25T16:01:19.780Z,12.05
2022-11-25T16:02:19.774Z,11.97
2022-11-25T16:03:19.714Z,11.97
2022-11-25T16:04:19.698Z,12.01
2022-11-25T16:05:19.707Z,11.93
2022-11-25T16:06:19.688Z,11.87
2022-11-25T16:07:19.719Z,11.96
2022-11-25T16:08:19.650Z,11.82
2022-11-25T16:09:19.645Z,11.82
2022-11-25T16:10:19.659Z,11.82
2022-11-25T16:11:19.638Z,11.80
2022-11-25T16:12:19.620Z,11.80
2022-11-25T16:13:21.776Z,11.77
2022-11-25T16:14:19.584Z,11.70
2022-11-25T16:15:19.590Z,11.75
2022-11-25T16:16:19.799Z,11.77
2022-11-25T16:17:19.559Z,11.65
2022-11-25T16:18:39.388Z,11.72
2022-11-25T16:19:20.545Z,11.65
2022-11-25T16:20:19.518Z,11.72
2022-11-25T16:21:19.524Z,11.65
2022-11-25T16:22:19.498Z,11.65
2022-11-25T16:23:19.486Z,11.72
2022-11-25T16:24:19.486Z,11.64
2022-11-25T16:25:19.464Z,11.67
2022-11-25T16:26:19.463Z,11.71
2022-11-25T16:27:19.560Z,11.68
2022-11-25T16:28:20.189Z,11.70
2022-11-25T16:29:19.420Z,11.72
2022-11-25T16:30:19.407Z,11.71
2022-11-25T16:31:19.512Z,11.70
2022-11-25T16:32:19.450Z,11.75
2022-11-25T16:33:19.381Z,11.71
2022-11-25T16:34:19.358Z,11.67
2022-11-25T16:35:19.363Z,11.67
2022-11-25T16:36:19.338Z,11.70
2022-11-25T16:37:19.359Z,11.65
2022-11-25T16:38:19.328Z,11.75
2022-11-25T16:39:19.305Z,11.68
2022-11-25T16:40:19.320Z,11.70
2022-11-25T16:41:19.282Z,11.70
2022-11-25T16:42:19.277Z,11.75
2022-11-25T16:43:19.260Z,11.71
2022-11-25T16:44:19.258Z,11.65
2022-11-25T16:45:19.243Z,11.67
2022-11-25T16:46:19.328Z,11.75
2022-11-25T16:47:19.246Z,11.59
2022-11-25T16:48:19.237Z,11.70
2022-11-25T16:49:19.211Z,11.62
2022-11-25T16:50:19.190Z,11.71
2022-11-25T16:51:19.169Z,11.68
2022-11-25T16:52:19.182Z,11.72
2022-11-25T16:53:19.155Z,11.70
2022-11-25T16:54:19.136Z,11.71
2022-11-25T16:55:19.133Z,11.64
2022-11-25T16:56:19.124Z,11.71
2022-11-25T16:57:19.137Z,11.61
2022-11-25T16:58:19.108Z,11.67
2022-11-25T16:59:19.091Z,11.71
2022-11-25T17:00:19.079Z,11.65
2022-11-25T17:01:19.125Z,11.72
2022-11-25T17:02:19.329Z,11.68
2022-11-25T17:03:19.813Z,11.74
2022-11-25T17:04:19.054Z,11.68
2022-11-25T17:05:19.020Z,11.68
2022-11-25T17:06:22.143Z,11.67
2022-11-25T17:07:34.726Z,11.61
2022-11-25T17:08:20.116Z,11.71
2022-11-25T17:09:18.959Z,11.72
2022-11-25T17:10:18.952Z,11.68
2022-11-25T17:11:18.958Z,11.65
2022-11-25T17:12:18.932Z,11.72
2022-11-25T17:13:18.948Z,11.62
2022-11-25T17:14:19.048Z,11.64
2022-11-25T17:15:19.114Z,11.71
2022-11-25T17:16:19.105Z,11.65
2022-11-25T17:17:23.934Z,11.64
2022-11-25T17:18:19.885Z,11.68
2022-11-25T17:19:19.015Z,11.75
2022-11-25T17:20:18.881Z,11.62
2022-11-25T17:21:18.838Z,11.65
2022-11-25T17:22:18.818Z,11.64
2022-11-25T17:23:18.820Z,11.75
2022-11-25T17:24:18.807Z,11.74
2022-11-25T17:25:18.790Z,11.71
2022-11-25T17:26:18.787Z,11.56
2022-11-25T17:27:18.772Z,11.78
2022-11-25T17:28:18.763Z,11.68
2022-11-25T17:29:18.759Z,11.64
2022-11-25T17:30:18.727Z,11.70
2022-11-25T17:31:18.738Z,11.70
2022-11-25T17:32:18.823Z,11.68
2022-11-25T17:33:18.693Z,11.72
2022-11-25T17:34:18.697Z,11.61
2022-11-25T17:35:18.681Z,11.67
2022-11-25T17:36:18.680Z,11.72
2022-11-25T17:37:18.644Z,11.59
2022-11-25T17:38:18.638Z,11.59
2022-11-25T17:39:18.649Z,11.64
2022-11-25T17:40:18.625Z,11.70
2022-11-25T17:41:18.612Z,11.56
2022-11-25T17:42:18.590Z,11.71
2022-11-25T17:43:18.592Z,11.70
2022-11-25T17:44:18.607Z,11.62
2022-11-25T17:45:18.559Z,11.57
2022-11-25T17:46:18.644Z,11.57
2022-11-25T17:47:18.553Z,11.53
2022-11-25T17:48:18.541Z,11.62
2022-11-25T17:49:18.522Z,11.57
2022-11-25T17:50:18.588Z,11.64
2022-11-25T17:51:18.512Z,11.59
2022-11-25T17:52:18.498Z,11.53
2022-11-25T17:53:18.466Z,11.59
2022-11-25T17:54:18.471Z,11.53
2022-11-25T17:55:18.465Z,11.57
2022-11-25T17:56:18.448Z,11.54
2022-11-25T17:57:18.418Z,11.46
2022-11-25T17:58:18.411Z,11.50
2022-11-25T17:59:18.416Z,11.61
2022-11-25T18:00:18.415Z,11.52
2022-11-25T18:01:18.432Z,11.57
2022-11-25T18:02:18.485Z,11.56
2022-11-25T18:03:18.374Z,11.49
2022-11-25T18:04:18.342Z,11.61
2022-11-25T18:05:18.354Z,11.59
2022-11-25T18:06:18.318Z,11.54
2022-11-25T18:07:18.427Z,11.56
2022-11-25T18:08:18.340Z,11.52
2022-11-25T18:09:18.292Z,11.52
2022-11-25T18:10:18.312Z,11.50
2022-11-25T18:11:18.258Z,11.56
2022-11-25T18:12:18.263Z,11.49
2022-11-25T18:13:18.236Z,11.50
2022-11-25T18:14:18.241Z,11.56
2022-11-25T18:15:18.235Z,11.39
2022-11-25T18:16:18.322Z,11.46
2022-11-25T18:17:18.203Z,11.39
2022-11-25T18:18:18.183Z,11.54
2022-11-25T18:19:18.197Z,11.50
2022-11-25T18:20:18.158Z,11.53
2022-11-25T18:21:18.157Z,11.50
2022-11-25T18:22:18.146Z,11.53
2022-11-25T18:23:18.120Z,11.57
2022-11-25T18:24:18.136Z,11.52
2022-11-25T18:25:18.116Z,11.62
2022-11-25T18:26:18.109Z,11.54
2022-11-25T18:27:18.094Z,11.67
2022-11-25T18:28:18.081Z,11.54
2022-11-25T18:29:18.066Z,11.62
2022-11-25T18:30:19.780Z,11.59
2022-11-25T18:31:18.076Z,11.62
2022-11-25T18:32:18.040Z,11.49
2022-11-25T18:33:18.033Z,11.67
2022-11-25T18:34:18.004Z,11.62
2022-11-25T18:35:17.997Z,11.56
2022-11-25T18:36:17.977Z,11.44
2022-11-25T18:37:17.964Z,11.53
2022-11-25T18:38:17.972Z,11.68
2022-11-25T18:39:17.953Z,11.52
2022-11-25T18:40:17.966Z,11.49
2022-11-25T18:41:17.924Z,11.61
2022-11-25T18:42:17.926Z,11.54
2022-11-25T18:43:17.908Z,11.54
2022-11-25T18:44:21.692Z,11.49
2022-11-25T18:45:18.881Z,11.64
2022-11-25T18:46:17.908Z,11.46
2022-11-25T18:47:17.853Z,11.53
2022-11-25T18:48:17.864Z,11.53
2022-11-25T18:49:17.848Z,11.52
2022-11-25T18:50:17.874Z,11.49
2022-11-25T18:51:17.816Z,11.46